Time;durP1;ratioP1;P1;durP2;ratioP2;P2;SDS_P1;SDS_P2;PMS_P1;PMS_P2;Temp;Humidity;BMP_temperature;BMP_pressure;BME280_temperature;BME280_humidity;BME280_pressure;Samples;Min_cycle;Max_cycle;Signal;HPM_P1;HPM_P2
2021/01/21 00:00:35;;;;;;;0.60;0.60;;;6.50;99.90;;;;;;5110134;28;20198;-83
2021/01/21 00:03:01;;;;;;;0.60;0.60;;;6.50;99.90;;;;;;5110394;28;20253;-83
2021/01/21 00:05:27;;;;;;;0.60;0.60;;;6.30;99.90;;;;;;5110322;28;20209;-84
2021/01/21 00:07:54;;;;;;;0.55;0.55;;;;;;;;;;5110285;28;20206;-83
2021/01/21 00:10:23;;;;;;;0.60;0.60;;;6.60;99.90;;;;;;5109771;28;20233;-83
2021/01/21 00:12:50;;;;;;;0.60;0.60;;;6.30;99.90;;;;;;5110069;28;20229;-83
2021/01/21 00:15:16;;;;;;;0.60;0.60;;;6.30;99.90;;;;;;5109765;28;20206;-83
2021/01/21 00:17:46;;;;;;;0.57;0.57;;;7.00;99.90;;;;;;5109929;28;20224;-83
2021/01/21 00:20:16;;;;;;;0.60;0.60;;;6.30;99.90;;;;;;5109619;28;20203;-84
2021/01/21 00:22:42;;;;;;;0.60;0.60;;;6.50;99.90;;;;;;5109843;28;20201;-84
2021/01/21 00:25:09;;;;;;;0.60;0.60;;;6.50;99.90;;;;;;5109515;28;20202;-84
2021/01/21 00:27:35;;;;;;;0.60;0.60;;;6.70;99.90;;;;;;5109918;28;20247;-84
2021/01/21 00:30:02;;;;;;;0.50;0.50;;;6.80;99.90;;;;;;5109496;28;20199;-84
2021/01/21 00:32:28;;;;;;;0.60;0.60;;;7.70;99.90;;;;;;5108981;28;20279;-84
2021/01/21 00:34:55;;;;;;;0.60;0.60;;;6.80;99.90;;;;;;5109428;28;20538;-84
2021/01/21 00:37:21;;;;;;;0.60;0.60;;;6.80;99.90;;;;;;5109192;28;20220;-84
2021/01/21 00:39:47;;;;;;;0.60;0.60;;;;;;;;;;5109398;28;20641;-84
2021/01/21 00:42:13;;;;;;;0.60;0.60;;;6.90;99.90;;;;;;5109257;28;20198;-84
2021/01/21 00:44:40;;;;;;;0.60;0.60;;;6.80;99.90;;;;;;5109633;28;20198;-84
2021/01/21 00:47:06;;;;;;;0.60;0.60;;;6.80;99.90;;;;;;5109256;28;20546;-84
2021/01/21 00:49:32;;;;;;;0.60;0.60;;;7.00;99.90;;;;;;5108730;28;20205;-84
2021/01/21 00:52:02;;;;;;;0.60;0.60;;;9.80;99.90;;;;;;5108961;28;20500;-84
2021/01/21 00:54:30;;;;;;;0.60;0.60;;;7.00;99.90;;;;;;5108524;28;20684;-84
2021/01/21 00:56:56;;;;;;;0.60;0.60;;;7.40;99.90;;;;;;5109011;28;20203;-84
2021/01/21 00:59:22;;;;;;;0.60;0.60;;;7.30;99.90;;;;;;5108602;28;20198;-84
2021/01/21 01:01:48;;;;;;;0.60;0.60;;;7.20;99.90;;;;;;5108688;28;20194;-84
2021/01/21 01:04:14;;;;;;;0.60;0.60;;;6.30;99.90;;;;;;5108650;28;20202;-84
2021/01/21 01:06:40;;;;;;;0.60;0.60;;;7.20;99.90;;;;;;5108620;28;20752;-84
2021/01/21 01:09:07;;;;;;;0.60;0.60;;;8.00;99.90;;;;;;5108384;28;20202;-84
2021/01/21 01:11:34;;;;;;;0.52;0.52;;;7.00;99.90;;;;;;5107581;28;20245;-84
2021/01/21 01:14:00;;;;;;;0.60;0.60;;;;;;;;;;5108871;28;20206;-84
2021/01/21 01:16:26;;;;;;;0.50;0.50;;;;;;;;;;5108746;28;20202;-84
2021/01/21 01:18:53;;;;;;;0.60;0.60;;;7.20;99.90;;;;;;5108825;28;20198;-84
2021/01/21 01:21:21;;;;;;;0.60;0.60;;;7.40;99.90;;;;;;5108664;28;20624;-84
2021/01/21 01:23:51;;;;;;;0.60;0.60;;;7.10;99.90;;;;;;5108283;28;20239;-84
2021/01/21 01:26:19;;;;;;;0.55;0.55;;;7.50;99.90;;;;;;5107989;28;20297;-84
2021/01/21 01:28:45;;;;;;;0.60;0.60;;;7.50;99.90;;;;;;5109774;28;20206;-83
2021/01/21 01:31:12;;;;;;;0.60;0.60;;;7.20;99.90;;;;;;5109641;28;20287;-83
2021/01/21 01:33:38;;;;;;;0.60;0.60;;;7.20;99.90;;;;;;5109973;28;20209;-83
2021/01/21 01:36:05;;;;;;;0.60;0.60;;;7.50;99.90;;;;;;5109559;28;20206;-84
2021/01/21 01:38:31;;;;;;;0.60;0.60;;;7.30;99.90;;;;;;5109739;28;20198;-84
2021/01/21 01:40:57;;;;;;;0.60;0.60;;;7.50;99.90;;;;;;5109375;28;20202;-84
2021/01/21 01:43:24;;;;;;;0.52;0.52;;;7.30;99.90;;;;;;5109620;28;20239;-84
2021/01/21 01:45:50;;;;;;;0.50;0.50;;;8.10;99.90;;;;;;5109786;28;20198;-84
2021/01/21 01:48:20;;;;;;;0.60;0.60;;;7.20;99.90;;;;;;5109726;28;20403;-83
2021/01/21 01:50:47;;;;;;;0.60;0.60;;;7.50;99.90;;;;;;5109781;28;20275;-84
2021/01/21 01:53:13;;;;;;;0.60;0.60;;;7.10;99.90;;;;;;5109589;28;20226;-84
2021/01/21 01:55:40;;;;;;;0.60;0.60;;;7.30;99.90;;;;;;5109654;28;20198;-84
2021/01/21 01:58:09;;;;;;;0.60;0.60;;;6.60;99.90;;;;;;5109818;28;20237;-83
2021/01/21 02:00:37;;;;;;;0.60;0.60;;;7.10;99.90;;;;;;5109495;28;20202;-84
2021/01/21 02:03:07;;;;;;;0.60;0.60;;;7.00;99.90;;;;;;5109538;28;20209;-84
2021/01/21 02:05:34;;;;;;;0.50;0.50;;;6.60;99.90;;;;;;5109316;28;20206;-83
2021/01/21 02:08:00;;;;;;;0.50;0.50;;;6.80;99.90;;;;;;5109459;28;20202;-84
2021/01/21 02:10:26;;;;;;;0.60;0.60;;;7.60;99.90;;;;;;5109099;28;20221;-84
2021/01/21 02:13:13;;;;;;;0.60;0.60;;;6.90;99.90;;;;;;5109406;28;20282;-84
2021/01/21 02:15:53;;;;;;;0.60;0.60;;;6.20;99.90;;;;;;5109065;28;20206;-84
2021/01/21 02:18:24;;;;;;;0.60;0.60;;;7.60;99.90;;;;;;5109205;28;20224;-84
2021/01/21 02:21:26;;;;;;;0.55;0.55;;;6.40;99.90;;;;;;5109371;28;20209;-84
2021/01/21 02:24:19;;;;;;;0.60;0.60;;;6.60;99.90;;;;;;5113478;28;20212;-85
2021/01/21 02:26:50;;;;;;;0.60;0.60;;;4.40;99.90;;;;;;5113549;28;20637;-84
2021/01/21 02:29:21;;;;;;;0.60;0.60;;;6.30;99.90;;;;;;5113139;28;20202;-84
2021/01/21 02:32:09;;;;;;;0.60;0.60;;;6.10;99.90;;;;;;5113084;28;20378;-84
2021/01/21 02:34:46;;;;;;;0.60;0.60;;;6.50;99.90;;;;;;5113016;28;20251;-85
2021/01/21 02:37:19;;;;;;;0.60;0.60;;;6.60;99.90;;;;;;5113114;28;20215;-84
2021/01/21 02:39:49;;;;;;;0.50;0.50;;;6.60;99.90;;;;;;5113145;28;20202;-84
2021/01/21 02:42:16;;;;;;;0.60;0.60;;;6.50;99.90;;;;;;5112843;28;20210;-84
2021/01/21 02:44:42;;;;;;;0.60;0.60;;;6.30;99.90;;;;;;5112985;28;20202;-85
2021/01/21 02:47:09;;;;;;;0.60;0.60;;;6.40;99.90;;;;;;5112890;28;20190;-84
2021/01/21 02:49:36;;;;;;;0.60;0.60;;;6.20;99.90;;;;;;5112710;28;20271;-84
2021/01/21 02:52:12;;;;;;;0.60;0.60;;;6.40;99.90;;;;;;5108087;28;20222;-85
2021/01/21 02:54:47;;;;;;;0.60;0.60;;;6.60;99.90;;;;;;5111211;28;20205;-84
2021/01/21 02:57:22;;;;;;;0.60;0.60;;;6.70;99.90;;;;;;5111389;28;20213;-84
2021/01/21 02:59:52;;;;;;;0.60;0.60;;;6.50;99.90;;;;;;5111371;28;20210;-84
2021/01/21 03:02:20;;;;;;;0.60;0.60;;;6.80;99.90;;;;;;5111239;28;20202;-84
2021/01/21 03:04:48;;;;;;;0.57;0.57;;;6.80;99.90;;;;;;5111202;28;20267;-84
2021/01/21 03:07:16;;;;;;;0.60;0.60;;;6.30;99.90;;;;;;5110561;28;20673;-84
2021/01/21 03:09:44;;;;;;;0.60;0.60;;;6.90;99.90;;;;;;5110939;28;20206;-84
2021/01/21 03:12:21;;;;;;;0.60;0.60;;;6.70;99.90;;;;;;5110725;28;20222;-84
2021/01/21 03:14:49;;;;;;;0.60;0.60;;;7.10;99.90;;;;;;5110790;28;20194;-84
2021/01/21 03:17:16;;;;;;;0.60;0.60;;;6.90;99.90;;;;;;5111021;28;20198;-85
2021/01/21 03:19:42;;;;;;;0.60;0.60;;;7.00;99.90;;;;;;5111093;28;20221;-84
2021/01/21 03:22:08;;;;;;;0.60;0.60;;;7.10;99.90;;;;;;5113136;28;20210;-84
2021/01/21 03:24:35;;;;;;;0.60;0.60;;;7.10;99.90;;;;;;5110383;28;20711;-84
2021/01/21 03:27:04;;;;;;;0.60;0.60;;;6.70;99.90;;;;;;5110686;28;20338;-83
2021/01/21 03:29:31;;;;;;;0.60;0.60;;;6.50;99.90;;;;;;5110646;28;20567;-84
2021/01/21 03:31:57;;;;;;;0.60;0.60;;;6.90;99.90;;;;;;5110624;28;20234;-84
2021/01/21 03:34:23;;;;;;;0.60;0.60;;;6.50;99.90;;;;;;5109620;28;20202;-84
2021/01/21 03:36:49;;;;;;;0.52;0.52;;;7.20;99.90;;;;;;5110602;28;20279;-84
2021/01/21 03:39:16;;;;;;;0.60;0.60;;;7.00;99.90;;;;;;5110511;28;20206;-84
2021/01/21 03:41:43;;;;;;;0.60;0.60;;;7.00;99.90;;;;;;5110496;28;20206;-84
2021/01/21 03:44:09;;;;;;;0.55;0.55;;;7.00;99.90;;;;;;5109886;28;20202;-84
2021/01/21 03:46:35;;;;;;;0.60;0.60;;;7.00;99.90;;;;;;5108839;28;20271;-84
2021/01/21 03:49:01;;;;;;;0.60;0.60;;;6.10;99.90;;;;;;5111786;28;20202;-84
2021/01/21 03:51:27;;;;;;;0.60;0.60;;;9.70;99.90;;;;;;5111447;28;20213;-84
2021/01/21 03:53:53;;;;;;;0.60;0.60;;;7.00;99.90;;;;;;5111591;28;20201;-84
2021/01/21 03:56:20;;;;;;;0.60;0.60;;;7.00;99.90;;;;;;5111754;28;20190;-84
2021/01/21 03:58:49;;;;;;;0.60;0.60;;;6.60;99.90;;;;;;5111401;28;20668;-84
2021/01/21 04:01:15;;;;;;;0.60;0.60;;;7.00;99.90;;;;;;5111402;28;20206;-84
2021/01/21 04:03:41;;;;;;;0.50;0.50;;;7.00;99.90;;;;;;5111129;28;20482;-84
2021/01/21 04:06:08;;;;;;;0.60;0.60;;;7.00;99.90;;;;;;5111342;28;20633;-84
2021/01/21 04:08:34;;;;;;;0.60;0.60;;;7.00;99.90;;;;;;5111444;28;20194;-84
2021/01/21 04:11:00;;;;;;;0.60;0.60;;;7.00;99.90;;;;;;5111490;28;20565;-83
2021/01/21 04:13:26;;;;;;;0.60;0.60;;;6.30;99.90;;;;;;5111307;28;20226;-83
2021/01/21 04:15:53;;;;;;;0.57;0.57;;;6.80;99.90;;;;;;5111347;28;20263;-83
2021/01/21 04:18:20;;;;;;;0.60;0.60;;;6.90;99.90;;;;;;5111295;28;20553;-84
2021/01/21 04:20:46;;;;;;;0.60;0.60;;;6.90;99.90;;;;;;5111173;28;20214;-84
2021/01/21 04:23:12;;;;;;;0.60;0.60;;;6.80;99.90;;;;;;5111113;28;20198;-83
2021/01/21 04:25:38;;;;;;;0.60;0.60;;;6.90;99.90;;;;;;5111027;28;20252;-84
2021/01/21 04:28:05;;;;;;;0.60;0.60;;;6.50;99.90;;;;;;5111220;28;20194;-84
2021/01/21 04:30:31;;;;;;;0.60;0.60;;;6.40;99.90;;;;;;5110617;28;20724;-84
2021/01/21 04:32:58;;;;;;;0.60;0.60;;;6.70;99.90;;;;;;5110560;28;20229;-84
2021/01/21 04:35:26;;;;;;;0.60;0.60;;;6.50;99.90;;;;;;5110285;28;20252;-84
2021/01/21 04:37:54;;;;;;;0.60;0.60;;;6.50;99.90;;;;;;5111501;28;20799;-85
2021/01/21 04:40:21;;;;;;;0.60;0.60;;;6.20;99.90;;;;;;5111321;28;20202;-84
2021/01/21 04:42:47;;;;;;;0.60;0.60;;;6.50;99.90;;;;;;5111769;28;20540;-84
2021/01/21 04:45:16;;;;;;;0.60;0.60;;;6.30;99.90;;;;;;5112855;28;20573;-85
2021/01/21 04:47:42;;;;;;;0.60;0.60;;;6.60;99.90;;;;;;5111323;28;20229;-84
2021/01/21 04:50:14;;;;;;;0.60;0.60;;;6.70;99.90;;;;;;5112872;28;20206;-85
2021/01/21 04:52:44;;;;;;;0.55;0.55;;;5.50;99.90;;;;;;5112041;28;20234;-84
2021/01/21 04:55:16;;;;;;;0.60;0.60;;;7.40;99.90;;;;;;5111415;28;20198;-84
2021/01/21 04:57:45;;;;;;;0.60;0.60;;;6.90;99.90;;;;;;5112638;28;20613;-85
2021/01/21 05:00:12;;;;;;;0.60;0.60;;;6.80;99.90;;;;;;5112704;28;20206;-84
2021/01/21 05:02:43;;;;;;;0.60;0.60;;;6.90;99.90;;;;;;5112121;28;20613;-84
2021/01/21 05:05:11;;;;;;;0.60;0.60;;;6.60;99.90;;;;;;5111877;28;20202;-84
2021/01/21 05:07:39;;;;;;;0.60;0.60;;;6.90;99.90;;;;;;5112153;28;20710;-84
2021/01/21 05:10:06;;;;;;;0.60;0.60;;;6.60;99.90;;;;;;5110706;28;20202;-84
2021/01/21 05:12:33;;;;;;;0.52;0.52;;;7.00;99.90;;;;;;5095713;28;20231;-84
2021/01/21 05:14:59;;;;;;;0.60;0.60;;;6.90;99.90;;;;;;5091764;28;20569;-85
2021/01/21 05:17:25;;;;;;;0.60;0.60;;;7.10;99.90;;;;;;5092007;28;20209;-84
2021/01/21 05:19:52;;;;;;;0.60;0.60;;;7.30;99.90;;;;;;5091810;28;20203;-84
2021/01/21 05:22:19;;;;;;;0.50;0.50;;;7.50;99.90;;;;;;5091228;28;20801;-84
2021/01/21 05:24:46;;;;;;;0.60;0.60;;;6.70;99.90;;;;;;5091059;28;20214;-84
2021/01/21 05:27:13;;;;;;;0.60;0.60;;;6.90;99.90;;;;;;5091902;28;20207;-84
2021/01/21 05:29:43;;;;;;;0.50;0.50;;;7.40;99.90;;;;;;5091959;28;20203;-84
2021/01/21 05:32:10;;;;;;;0.60;0.60;;;7.50;99.90;;;;;;5091616;28;20234;-84
2021/01/21 05:34:39;;;;;;;0.50;0.50;;;7.70;99.90;;;;;;5090491;28;20202;-85
2021/01/21 05:37:08;;;;;;;0.50;0.50;;;8.30;99.90;;;;;;5090496;28;20658;-84
2021/01/21 05:39:39;;;;;;;0.60;0.60;;;7.90;99.90;;;;;;5090022;28;20203;-85
2021/01/21 05:42:06;;;;;;;0.60;0.60;;;7.30;99.90;;;;;;5091492;28;20207;-84
2021/01/21 05:44:33;;;;;;;0.60;0.60;;;8.10;99.90;;;;;;5091423;28;20199;-84
2021/01/21 05:47:02;;;;;;;0.60;0.60;;;8.10;99.90;;;;;;5091602;28;20203;-84
2021/01/21 05:49:28;;;;;;;0.60;0.60;;;7.80;99.90;;;;;;5091142;28;20669;-84
2021/01/21 05:51:56;;;;;;;0.60;0.60;;;8.00;99.90;;;;;;5091485;28;20252;-84
2021/01/21 05:54:24;;;;;;;0.60;0.60;;;8.00;99.90;;;;;;5089381;28;20202;-85
2021/01/21 05:56:53;;;;;;;0.60;0.60;;;7.80;99.90;;;;;;5099533;28;20191;-84
2021/01/21 05:59:19;;;;;;;0.60;0.60;;;7.70;99.90;;;;;;5098642;28;20199;-85
2021/01/21 06:01:47;;;;;;;0.60;0.60;;;7.00;99.90;;;;;;5100137;28;20203;-84
2021/01/21 06:04:14;;;;;;;0.60;0.60;;;7.80;99.90;;;;;;5098540;28;20713;-84
2021/01/21 06:06:40;;;;;;;0.60;0.60;;;8.20;99.90;;;;;;5095939;28;20284;-85
2021/01/21 06:09:09;;;;;;;0.60;0.60;;;8.60;99.90;;;;;;5090433;28;20229;-85
2021/01/21 06:11:40;;;;;;;0.50;0.50;;;8.10;99.90;;;;;;5090513;28;20443;-85
2021/01/21 06:14:07;;;;;;;0.60;0.60;;;8.40;99.90;;;;;;5091429;28;20207;-84
2021/01/21 06:16:37;;;;;;;0.60;0.60;;;8.50;99.90;;;;;;5091141;28;20684;-85
2021/01/21 06:19:07;;;;;;;0.60;0.60;;;8.50;99.90;;;;;;5091358;28;20207;-88
2021/01/21 06:22:31;;;;;;;0.60;0.60;;;12.00;99.90;;;;;;5090795;28;20211;-89
2021/01/21 06:25:27;;;;;;;0.60;0.60;;;8.60;99.90;;;;;;5040375;28;20189;-89
2021/01/21 06:30:58;;;;;;;0.60;0.60;;;11.20;99.90;;;;;;5008457;28;20228;-88
2021/01/21 06:33:32;;;;;;;0.60;0.60;;;10.40;99.90;;;;;;5048059;28;20244;-88
2021/01/21 06:36:02;;;;;;;0.60;0.60;;;11.00;99.90;;;;;;5103992;28;20610;-91
2021/01/21 06:38:39;;;;;;;0.60;0.60;;;8.50;99.90;;;;;;5112298;28;20206;-88
2021/01/21 06:41:11;;;;;;;0.60;0.60;;;11.10;99.90;;;;;;5112291;28;20573;-88
2021/01/21 06:43:38;;;;;;;0.60;0.60;;;13.30;99.90;;;;;;5112009;28;20259;-87
2021/01/21 06:46:14;;;;;;;0.60;0.60;;;7.60;99.90;;;;;;5090672;28;20461;-87
2021/01/21 06:48:41;;;;;;;0.60;0.60;;;10.00;99.90;;;;;;5057286;28;20210;-85
2021/01/21 06:51:09;;;;;;;0.50;0.50;;;8.70;99.90;;;;;;5098121;28;20202;-85
2021/01/21 06:53:37;;;;;;;0.60;0.60;;;8.80;99.90;;;;;;5103753;28;20222;-86
2021/01/21 06:56:05;;;;;;;0.55;0.55;;;8.90;99.90;;;;;;5094692;28;20259;-86
2021/01/21 06:58:50;;;;;;;0.60;0.60;;;9.00;99.90;;;;;;5111314;28;20195;-86
2021/01/21 07:01:51;;;;;;;0.60;0.60;;;8.60;99.90;;;;;;5105778;28;20217;-87
2021/01/21 07:04:28;;;;;;;0.60;0.60;;;9.80;99.90;;;;;;5097925;28;20254;-85
2021/01/21 07:07:08;;;;;;;0.60;0.60;;;10.00;99.90;;;;;;5099707;28;20285;-85
2021/01/21 07:09:38;;;;;;;0.60;0.60;;;9.30;99.90;;;;;;5100732;28;20805;-85
2021/01/21 07:12:05;;;;;;;0.60;0.60;;;8.70;99.90;;;;;;5108610;27;20234;-85
2021/01/21 07:14:36;;;;;;;0.57;0.57;;;9.30;99.90;;;;;;5100366;28;20198;-85
2021/01/21 07:17:05;;;;;;;0.60;0.60;;;8.60;99.90;;;;;;5106328;28;20206;-86
2021/01/21 07:19:39;;;;;;;0.60;0.60;;;8.30;99.90;;;;;;5108079;28;20213;-85
2021/01/21 07:22:20;;;;;;;0.60;0.60;;;9.40;99.90;;;;;;5103287;28;20748;-85
2021/01/21 07:25:00;;;;;;;0.60;0.60;;;9.20;99.90;;;;;;5101278;28;20650;-86
2021/01/21 07:27:30;;;;;;;0.60;0.60;;;11.60;99.90;;;;;;5110901;27;20202;-85
2021/01/21 07:30:21;;;;;;;0.60;0.60;;;9.40;99.90;;;;;;5113752;28;20217;-85
2021/01/21 07:32:49;;;;;;;0.60;0.60;;;9.40;99.90;;;;;;5094023;27;20300;-86
2021/01/21 07:35:39;;;;;;;0.50;0.50;;;9.40;99.90;;;;;;5102960;27;20201;-85
2021/01/21 07:38:06;;;;;;;0.60;0.60;;;11.20;99.90;;;;;;5101949;28;20215;-86
2021/01/21 07:40:45;;;;;;;0.50;0.50;;;9.40;99.90;;;;;;5101001;28;20289;-86
2021/01/21 07:43:16;;;;;;;0.57;0.57;;;10.40;99.90;;;;;;5101770;27;20247;-86
2021/01/21 07:45:44;;;;;;;0.60;0.60;;;9.30;99.90;;;;;;5103086;28;20234;-86
2021/01/21 07:48:25;;;;;;;0.60;0.60;;;8.50;99.90;;;;;;5102406;28;20202;-86
2021/01/21 07:50:52;;;;;;;0.60;0.60;;;8.90;99.90;;;;;;5103556;28;20289;-87
2021/01/21 07:53:26;;;;;;;0.60;0.60;;;9.30;99.90;;;;;;5093207;28;20716;-86
2021/01/21 07:55:53;;;;;;;0.60;0.60;;;9.10;99.90;;;;;;5100996;28;20205;-88
2021/01/21 07:58:39;;;;;;;0.60;0.60;;;9.10;99.90;;;;;;5110475;28;20248;-86
2021/01/21 08:01:07;;;;;;;0.50;0.50;;;9.40;99.90;;;;;;5107846;28;20214;-87
2021/01/21 08:03:40;;;;;;;0.60;0.60;;;11.10;99.90;;;;;;5103696;28;20199;-86
2021/01/21 08:06:08;;;;;;;0.60;0.60;;;9.20;99.90;;;;;;5103096;28;20229;-87
2021/01/21 08:08:35;;;;;;;0.60;0.60;;;10.20;99.90;;;;;;5099854;28;20340;-86
2021/01/21 08:11:04;;;;;;;0.60;0.60;;;10.40;99.90;;;;;;5104438;28;20198;-87
2021/01/21 08:13:31;;;;;;;0.60;0.60;;;9.60;99.90;;;;;;5104415;27;20308;-86
2021/01/21 08:15:57;;;;;;;0.60;0.60;;;10.00;99.90;;;;;;5100253;28;20202;-87
2021/01/21 08:18:24;;;;;;;0.60;0.60;;;9.50;99.90;;;;;;5100907;27;20206;-87
2021/01/21 08:20:51;;;;;;;0.60;0.60;;;12.20;99.90;;;;;;5100236;28;20205;-87
2021/01/21 08:23:17;;;;;;;0.60;0.60;;;11.60;99.90;;;;;;5105348;28;20237;-87
2021/01/21 08:25:45;;;;;;;0.60;0.60;;;9.50;99.90;;;;;;5102907;28;20247;-87
2021/01/21 08:28:15;;;;;;;0.50;0.50;;;9.40;99.90;;;;;;5104616;27;20203;-86
2021/01/21 08:30:41;;;;;;;0.60;0.60;;;8.70;99.90;;;;;;5106041;27;20238;-86
2021/01/21 08:33:12;;;;;;;0.60;0.60;;;7.10;99.90;;;;;;5110826;28;20226;-87
2021/01/21 08:35:45;;;;;;;0.60;0.60;;;8.50;99.90;;;;;;5104437;28;20194;-86
2021/01/21 08:38:14;;;;;;;0.55;0.55;;;7.70;99.90;;;;;;5099041;27;20206;-87
2021/01/21 08:40:41;;;;;;;0.60;0.60;;;7.00;99.90;;;;;;5107785;28;20203;-86
2021/01/21 08:43:14;;;;;;;0.60;0.60;;;8.60;99.90;;;;;;5105475;28;20194;-86
2021/01/21 08:46:10;;;;;;;0.60;0.60;;;6.30;99.90;;;;;;5110342;28;20232;-87
2021/01/21 08:51:41;;;;;;;0.60;0.60;;;7.00;99.90;;;;;;5105462;28;20551;-86
2021/01/21 08:57:39;;;;;;;0.60;0.60;;;8.30;99.90;;;;;;5063103;28;20635;-88
2021/01/21 09:00:19;;;;;;;0.60;0.60;;;8.50;99.90;;;;;;5099079;28;20197;-86
2021/01/21 09:02:56;;;;;;;0.60;0.60;;;7.70;99.90;;;;;;5114004;28;20202;-86
2021/01/21 09:08:43;;;;;;;0.60;0.60;;;7.40;99.90;;;;;;5111849;28;20551;-86
2021/01/21 09:11:36;;;;;;;0.60;0.60;;;9.80;99.90;;;;;;5105061;28;20221;-87
2021/01/21 09:14:15;;;;;;;0.60;0.60;;;7.60;99.90;;;;;;5108101;28;20267;-86
2021/01/21 09:16:59;;;;;;;0.60;0.60;;;7.40;99.90;;;;;;5123672;27;20601;-86
2021/01/21 09:19:44;;;;;;;0.60;0.60;;;8.70;99.90;;;;;;5115826;27;20210;-85
2021/01/21 09:22:32;;;;;;;;;;;;;;;;;;;;;
2021/01/21 09:25:14;;;;;;;0.60;0.60;;;6.90;99.90;;;;;;5111956;28;20229;-86
2021/01/21 09:27:55;;;;;;;0.60;0.60;;;5.90;99.90;;;;;;5112415;28;20207;-86
2021/01/21 09:30:26;;;;;;;0.60;0.60;;;7.20;99.90;;;;;;5111645;28;20661;-86
2021/01/21 09:32:59;;;;;;;0.60;0.60;;;7.20;99.90;;;;;;5111937;28;20253;-86
2021/01/21 09:35:37;;;;;;;0.57;0.57;;;7.30;99.90;;;;;;5111994;28;20217;-86
2021/01/21 09:38:09;;;;;;;0.60;0.60;;;5.80;99.90;;;;;;5118511;27;20236;-86
2021/01/21 09:40:36;;;;;;;0.50;0.50;;;8.30;99.90;;;;;;5121268;27;20992;-86
2021/01/21 09:43:05;;;;;;;0.60;0.60;;;9.50;99.90;;;;;;5104378;28;20211;-86
2021/01/21 09:45:45;;;;;;;0.52;0.52;;;5.00;99.90;;;;;;5110680;28;20217;-85
2021/01/21 09:48:12;;;;;;;0.60;0.60;;;8.10;99.90;;;;;;5107628;28;20202;-86
2021/01/21 09:50:47;;;;;;;0.60;0.60;;;6.90;99.90;;;;;;5095633;28;20256;-86
2021/01/21 09:53:22;;;;;;;0.60;0.60;;;7.00;99.90;;;;;;5098964;28;20231;-85
2021/01/21 09:55:55;;;;;;;0.60;0.60;;;9.20;99.90;;;;;;5110464;28;20213;-86
2021/01/21 09:58:25;;;;;;;0.60;0.60;;;7.40;99.90;;;;;;5111183;28;20202;-86
2021/01/21 10:00:54;;;;;;;0.60;0.60;;;5.40;99.90;;;;;;5101737;28;20209;-86
2021/01/21 10:03:22;;;;;;;0.60;0.60;;;10.90;99.90;;;;;;5100003;28;20670;-86
2021/01/21 10:05:51;;;;;;;0.60;0.60;;;6.40;99.90;;;;;;5111019;28;20190;-86
2021/01/21 10:08:20;;;;;;;0.55;0.55;;;7.30;99.90;;;;;;5107017;28;20198;-86
2021/01/21 10:10:48;;;;;;;0.52;0.52;;;6.70;99.90;;;;;;5103721;28;20199;-86
2021/01/21 10:13:19;;;;;;;0.60;0.60;;;8.10;99.90;;;;;;5111580;28;20226;-86
2021/01/21 10:15:47;;;;;;;0.55;0.55;;;5.50;99.90;;;;;;5111463;28;20198;-86
2021/01/21 10:18:16;;;;;;;0.60;0.60;;;6.50;99.90;;;;;;5109891;28;20202;-86
2021/01/21 10:20:45;;;;;;;0.60;0.60;;;10.40;99.90;;;;;;5111013;28;20198;-86
2021/01/21 10:23:15;;;;;;;0.60;0.60;;;7.80;99.90;;;;;;5111041;28;20198;-87
2021/01/21 10:25:42;;;;;;;0.60;0.60;;;9.60;99.90;;;;;;5111913;28;20195;-87
2021/01/21 10:28:11;;;;;;;0.60;0.60;;;9.10;99.90;;;;;;5105849;28;20266;-86
2021/01/21 10:30:38;;;;;;;0.60;0.60;;;8.30;99.90;;;;;;5104374;28;20225;-86
2021/01/21 10:33:09;;;;;;;0.60;0.60;;;6.10;99.90;;;;;;5115725;28;20368;-87
2021/01/21 10:35:38;;;;;;;0.50;0.50;;;7.30;99.90;;;;;;5104248;28;20631;-86
2021/01/21 10:38:15;;;;;;;0.60;0.60;;;7.30;99.90;;;;;;5103181;28;20206;-86
2021/01/21 10:40:43;;;;;;;0.60;0.60;;;9.10;99.90;;;;;;5101455;28;20217;-86
2021/01/21 10:43:18;;;;;;;0.60;0.60;;;7.40;99.90;;;;;;5099517;28;20708;-87
2021/01/21 10:45:46;;;;;;;0.60;0.60;;;10.00;99.90;;;;;;5114698;28;20209;-85
2021/01/21 10:48:23;;;;;;;0.60;0.60;;;9.60;99.90;;;;;;5113903;28;20285;-86
2021/01/21 10:50:53;;;;;;;0.60;0.60;;;6.80;99.90;;;;;;5115263;28;20636;-87
2021/01/21 10:53:20;;;;;;;0.60;0.60;;;10.00;99.90;;;;;;5105662;28;20290;-87
2021/01/21 10:55:59;;;;;;;;;;;;;;;;;;;;;
2021/01/21 10:58:28;;;;;;;0.60;0.60;;;9.80;99.90;;;;;;5103766;28;20676;-86
2021/01/21 11:01:13;;;;;;;;;;;;;;;;;;;;;
2021/01/21 11:03:40;;;;;;;0.60;0.60;;;8.70;99.90;;;;;;5096726;28;20194;-86
2021/01/21 11:06:07;;;;;;;0.60;0.60;;;6.80;99.90;;;;;;5114111;28;20206;-86
2021/01/21 11:08:37;;;;;;;0.60;0.60;;;9.00;99.90;;;;;;5098806;28;20597;-86
2021/01/21 11:11:05;;;;;;;0.60;0.60;;;6.50;99.90;;;;;;5102245;28;20203;-85
2021/01/21 11:13:32;;;;;;;0.60;0.60;;;10.30;99.90;;;;;;5115537;27;20339;-86
2021/01/21 11:15:59;;;;;;;0.60;0.60;;;10.80;99.90;;;;;;5123783;27;20263;-86
2021/01/21 11:18:29;;;;;;;0.60;0.60;;;7.40;99.90;;;;;;5114150;28;20202;-86
2021/01/21 11:21:01;;;;;;;0.60;0.60;;;9.50;99.90;;;;;;5109390;28;20288;-86
2021/01/21 11:23:38;;;;;;;0.60;0.60;;;8.10;99.90;;;;;;5103583;28;20687;-86
2021/01/21 11:26:07;;;;;;;0.60;0.60;;;8.60;99.90;;;;;;5106917;28;20245;-85
2021/01/21 11:28:35;;;;;;;0.60;0.60;;;10.00;99.90;;;;;;5114442;28;20703;-87
2021/01/21 11:31:03;;;;;;;0.50;0.50;;;7.80;99.90;;;;;;5110780;28;20241;-86
2021/01/21 11:33:32;;;;;;;0.60;0.60;;;8.40;99.90;;;;;;5107918;28;20686;-86
2021/01/21 11:38:31;;;;;;;0.60;0.60;;;8.90;99.90;;;;;;5067406;28;20467;-83
2021/01/21 11:40:58;;;;;;;0.60;0.60;;;8.50;99.90;;;;;;5075601;28;20207;-83
2021/01/21 11:46:20;;;;;;;0.60;0.60;;;8.80;99.90;;;;;;5052429;28;20273;-85
2021/01/21 11:48:47;;;;;;;0.60;0.60;;;7.40;99.90;;;;;;5076881;28;20203;-83
2021/01/21 11:51:13;;;;;;;0.60;0.60;;;11.60;99.90;;;;;;5070689;28;20212;-84
2021/01/21 11:53:41;;;;;;;0.60;0.60;;;8.90;99.90;;;;;;5071449;28;20223;-84
2021/01/21 11:56:13;;;;;;;0.60;0.60;;;13.00;99.90;;;;;;5076317;28;20226;-85
2021/01/21 11:58:39;;;;;;;0.60;0.60;;;10.40;99.90;;;;;;5078781;28;20218;-83
2021/01/21 12:01:06;;;;;;;0.60;0.60;;;14.40;99.90;;;;;;5069622;28;20208;-84
2021/01/21 12:03:47;;;;;;;0.60;0.60;;;10.70;99.90;;;;;;5066100;28;20203;-84
2021/01/21 12:06:33;;;;;;;0.60;0.60;;;8.70;99.90;;;;;;5069101;28;20261;-84
2021/01/21 12:09:05;;;;;;;0.60;0.60;;;10.20;99.90;;;;;;5069171;28;20195;-86
2021/01/21 12:11:40;;;;;;;0.60;0.60;;;9.40;99.90;;;;;;5068222;28;20214;-83
2021/01/21 12:14:26;;;;;;;0.60;0.60;;;9.40;99.90;;;;;;5066526;28;20243;-82
2021/01/21 12:17:07;;;;;;;0.60;0.60;;;9.40;99.90;;;;;;5068605;28;20727;-84
2021/01/21 12:19:40;;;;;;;0.60;0.60;;;12.10;99.90;;;;;;5062907;28;20199;-83
2021/01/21 12:22:15;;;;;;;0.60;0.60;;;9.50;99.90;;;;;;5077110;28;20206;-83
2021/01/21 12:24:45;;;;;;;0.60;0.60;;;10.00;99.90;;;;;;5074353;28;20328;-86
2021/01/21 12:27:21;;;;;;;0.50;0.50;;;9.30;99.90;;;;;;5070697;28;20273;-85
2021/01/21 12:30:01;;;;;;;0.55;0.55;;;10.30;99.90;;;;;;5061891;28;20260;-84
2021/01/21 12:32:41;;;;;;;0.60;0.60;;;9.40;99.90;;;;;;5069163;28;20206;-83
2021/01/21 12:35:19;;;;;;;0.60;0.60;;;9.30;99.90;;;;;;5069914;28;20206;-86
2021/01/21 12:37:56;;;;;;;0.60;0.60;;;11.60;99.90;;;;;;5054086;28;20238;-86
2021/01/21 12:40:33;;;;;;;0.60;0.60;;;10.20;99.90;;;;;;5070535;28;20207;-85
2021/01/21 12:43:04;;;;;;;0.60;0.60;;;9.50;99.90;;;;;;5075820;28;20494;-86
2021/01/21 12:45:44;;;;;;;0.60;0.60;;;11.40;99.90;;;;;;5086843;28;20207;-85
2021/01/21 12:51:26;;;;;;;0.60;0.60;;;9.90;99.90;;;;;;5088101;28;20211;-85
2021/01/21 12:54:07;;;;;;;0.60;0.60;;;10.00;99.90;;;;;;5073140;28;20219;-85
2021/01/21 12:56:49;;;;;;;0.60;0.60;;;10.20;99.90;;;;;;5066892;28;20211;-86
2021/01/21 12:59:31;;;;;;;0.60;0.60;;;10.40;99.90;;;;;;5068790;28;20457;-86
2021/01/21 13:02:03;;;;;;;0.60;0.60;;;11.90;99.90;;;;;;5068412;28;20200;-85
2021/01/21 13:04:45;;;;;;;0.50;0.50;;;7.50;99.90;;;;;;5068295;28;20282;-87
2021/01/21 13:10:29;;;;;;;0.60;0.60;;;8.30;99.90;;;;;;5065280;28;20210;-82
2021/01/21 13:13:16;;;;;;;0.60;0.60;;;8.90;99.90;;;;;;5057120;28;20223;-83
2021/01/21 13:16:21;;;;;;;0.60;0.60;;;8.70;99.90;;;;;;5069024;28;20582;-84
2021/01/21 13:18:48;;;;;;;0.60;0.60;;;8.90;99.90;;;;;;5054754;28;20199;-84
2021/01/21 13:21:26;;;;;;;0.60;0.60;;;8.30;99.90;;;;;;5070709;28;20208;-84
2021/01/21 13:24:47;;;;;;;;;;;;;;;;;;;;;
2021/01/21 13:27:27;;;;;;;0.60;0.60;;;8.30;99.90;;;;;;5024544;28;20212;-84
2021/01/21 13:30:04;;;;;;;0.60;0.60;;;8.80;99.90;;;;;;5049682;28;20288;-83
2021/01/21 13:32:35;;;;;;;0.60;0.60;;;7.90;99.90;;;;;;5048838;28;20207;-85
2021/01/21 13:35:15;;;;;;;0.60;0.60;;;8.20;99.90;;;;;;5049449;28;20208;-83
2021/01/21 13:38:07;;;;;;;0.60;0.60;;;11.00;99.90;;;;;;5048916;28;20244;-83
2021/01/21 13:40:47;;;;;;;0.60;0.60;;;9.40;99.90;;;;;;5045157;28;20294;-82
2021/01/21 13:43:23;;;;;;;0.60;0.60;;;8.30;99.90;;;;;;5049305;28;20228;-83
2021/01/21 13:45:57;;;;;;;0.60;0.60;;;8.30;99.90;;;;;;5049557;28;20283;-83